sensor_id;sensor_type;location;lat;lon;timestamp;P1;durP1;ratioP1;P2;durP2;ratioP2
69892;SDS011;61212;42.688;22.176;2022-12-26T00:01:16;55.92;;;28.27;;
69892;SDS011;61212;42.688;22.176;2022-12-26T00:03:43;80.25;;;36.83;;
69892;SDS011;61212;42.688;22.176;2022-12-26T00:06:27;62.53;;;32.45;;
69892;SDS011;61212;42.688;22.176;2022-12-26T00:08:54;64.07;;;31.25;;
69892;SDS011;61212;42.688;22.176;2022-12-26T00:11:20;65.93;;;28.02;;
69892;SDS011;61212;42.688;22.176;2022-12-26T00:13:46;62.70;;;31.80;;
69892;SDS011;61212;42.688;22.176;2022-12-26T00:16:14;60.88;;;28.05;;
69892;SDS011;61212;42.688;22.176;2022-12-26T00:18:40;37.90;;;19.20;;
69892;SDS011;61212;42.688;22.176;2022-12-26T00:21:07;33.85;;;17.05;;
69892;SDS011;61212;42.688;22.176;2022-12-26T00:23:33;39.70;;;20.55;;
69892;SDS011;61212;42.688;22.176;2022-12-26T00:26:07;41.92;;;20.80;;
69892;SDS011;61212;42.688;22.176;2022-12-26T00:28:34;46.60;;;23.23;;
69892;SDS011;61212;42.688;22.176;2022-12-26T00:31:07;42.92;;;22.40;;
69892;SDS011;61212;42.688;22.176;2022-12-26T00:33:34;28.75;;;16.80;;
69892;SDS011;61212;42.688;22.176;2022-12-26T00:36:01;33.53;;;18.77;;
69892;SDS011;61212;42.688;22.176;2022-12-26T00:38:28;25.00;;;14.63;;
69892;SDS011;61212;42.688;22.176;2022-12-26T00:40:54;24.40;;;13.50;;
69892;SDS011;61212;42.688;22.176;2022-12-26T00:43:20;33.05;;;16.52;;
69892;SDS011;61212;42.688;22.176;2022-12-26T00:45:49;35.13;;;19.50;;
69892;SDS011;61212;42.688;22.176;2022-12-26T00:48:15;34.72;;;19.27;;
69892;SDS011;61212;42.688;22.176;2022-12-26T00:50:41;32.88;;;18.65;;
69892;SDS011;61212;42.688;22.176;2022-12-26T00:53:07;40.58;;;20.45;;
69892;SDS011;61212;42.688;22.176;2022-12-26T00:55:33;31.40;;;17.38;;
69892;SDS011;61212;42.688;22.176;2022-12-26T00:57:59;32.50;;;19.02;;
69892;SDS011;61212;42.688;22.176;2022-12-26T01:00:25;40.88;;;22.13;;
69892;SDS011;61212;42.688;22.176;2022-12-26T01:02:51;38.25;;;19.55;;
69892;SDS011;61212;42.688;22.176;2022-12-26T01:05:17;38.72;;;18.92;;
69892;SDS011;61212;42.688;22.176;2022-12-26T01:07:44;26.90;;;15.23;;
69892;SDS011;61212;42.688;22.176;2022-12-26T01:10:10;25.77;;;14.93;;
69892;SDS011;61212;42.688;22.176;2022-12-26T01:12:36;21.90;;;13.18;;
69892;SDS011;61212;42.688;22.176;2022-12-26T01:15:03;21.60;;;13.00;;
69892;SDS011;61212;42.688;22.176;2022-12-26T01:17:29;21.88;;;13.68;;
69892;SDS011;61212;42.688;22.176;2022-12-26T01:19:55;21.58;;;13.10;;
69892;SDS011;61212;42.688;22.176;2022-12-26T01:22:22;25.20;;;13.27;;
69892;SDS011;61212;42.688;22.176;2022-12-26T01:24:51;22.35;;;12.63;;
69892;SDS011;61212;42.688;22.176;2022-12-26T01:27:18;25.90;;;14.32;;
69892;SDS011;61212;42.688;22.176;2022-12-26T01:29:44;31.13;;;16.23;;
69892;SDS011;61212;42.688;22.176;2022-12-26T01:32:10;46.97;;;22.58;;
69892;SDS011;61212;42.688;22.176;2022-12-26T01:34:36;77.50;;;27.25;;
69892;SDS011;61212;42.688;22.176;2022-12-26T01:37:02;102.15;;;31.75;;
69892;SDS011;61212;42.688;22.176;2022-12-26T01:39:28;83.13;;;33.53;;
69892;SDS011;61212;42.688;22.176;2022-12-26T01:41:54;73.10;;;28.48;;
69892;SDS011;61212;42.688;22.176;2022-12-26T01:47:05;60.45;;;30.20;;
69892;SDS011;61212;42.688;22.176;2022-12-26T01:49:33;64.68;;;30.27;;
69892;SDS011;61212;42.688;22.176;2022-12-26T01:52:02;70.80;;;33.28;;
69892;SDS011;61212;42.688;22.176;2022-12-26T01:54:29;56.30;;;27.70;;
69892;SDS011;61212;42.688;22.176;2022-12-26T01:56:58;54.60;;;27.90;;
69892;SDS011;61212;42.688;22.176;2022-12-26T01:59:25;52.45;;;27.20;;
69892;SDS011;61212;42.688;22.176;2022-12-26T02:01:53;56.17;;;29.13;;
69892;SDS011;61212;42.688;22.176;2022-12-26T02:04:21;57.53;;;32.65;;
69892;SDS011;61212;42.688;22.176;2022-12-26T02:07:06;68.95;;;34.15;;
69892;SDS011;61212;42.688;22.176;2022-12-26T02:09:32;60.95;;;31.85;;
69892;SDS011;61212;42.688;22.176;2022-12-26T02:12:09;49.28;;;24.23;;
69892;SDS011;61212;42.688;22.176;2022-12-26T02:14:36;51.45;;;23.77;;
69892;SDS011;61212;42.688;22.176;2022-12-26T02:17:03;46.10;;;25.52;;
69892;SDS011;61212;42.688;22.176;2022-12-26T02:19:45;47.90;;;24.10;;
69892;SDS011;61212;42.688;22.176;2022-12-26T02:38:46;80.13;;;33.03;;
69892;SDS011;61212;42.688;22.176;2022-12-26T02:46:20;70.00;;;25.63;;
69892;SDS011;61212;42.688;22.176;2022-12-26T02:52:20;67.70;;;27.17;;
69892;SDS011;61212;42.688;22.176;2022-12-26T02:55:12;60.35;;;25.88;;
69892;SDS011;61212;42.688;22.176;2022-12-26T02:58:05;72.88;;;27.67;;
69892;SDS011;61212;42.688;22.176;2022-12-26T03:00:53;92.60;;;27.85;;
69892;SDS011;61212;42.688;22.176;2022-12-26T03:03:43;41.70;;;20.23;;
69892;SDS011;61212;42.688;22.176;2022-12-26T03:22:24;75.55;;;32.75;;
69892;SDS011;61212;42.688;22.176;2022-12-26T03:32:45;71.72;;;30.63;;
69892;SDS011;61212;42.688;22.176;2022-12-26T03:40:24;66.20;;;30.58;;
69892;SDS011;61212;42.688;22.176;2022-12-26T03:49:00;63.15;;;29.02;;
69892;SDS011;61212;42.688;22.176;2022-12-26T03:54:56;61.28;;;30.23;;
69892;SDS011;61212;42.688;22.176;2022-12-26T04:00:49;62.72;;;30.50;;
69892;SDS011;61212;42.688;22.176;2022-12-26T04:03:35;52.42;;;29.23;;
69892;SDS011;61212;42.688;22.176;2022-12-26T04:06:22;64.57;;;30.77;;
69892;SDS011;61212;42.688;22.176;2022-12-26T04:09:20;70.70;;;31.92;;
69892;SDS011;61212;42.688;22.176;2022-12-26T04:23:09;103.68;;;41.92;;
69892;SDS011;61212;42.688;22.176;2022-12-26T04:26:03;103.25;;;42.15;;
69892;SDS011;61212;42.688;22.176;2022-12-26T04:28:50;97.93;;;38.38;;
69892;SDS011;61212;42.688;22.176;2022-12-26T04:31:41;76.55;;;28.75;;
69892;SDS011;61212;42.688;22.176;2022-12-26T04:34:29;80.20;;;28.92;;
69892;SDS011;61212;42.688;22.176;2022-12-26T04:37:18;94.38;;;36.95;;
69892;SDS011;61212;42.688;22.176;2022-12-26T04:40:06;79.68;;;32.50;;
69892;SDS011;61212;42.688;22.176;2022-12-26T04:42:52;120.45;;;40.88;;
69892;SDS011;61212;42.688;22.176;2022-12-26T04:45:37;98.35;;;38.67;;
69892;SDS011;61212;42.688;22.176;2022-12-26T04:48:03;87.30;;;39.03;;
69892;SDS011;61212;42.688;22.176;2022-12-26T04:50:51;81.72;;;35.33;;
69892;SDS011;61212;42.688;22.176;2022-12-26T04:53:18;92.68;;;37.45;;
69892;SDS011;61212;42.688;22.176;2022-12-26T04:55:44;105.72;;;42.00;;
69892;SDS011;61212;42.688;22.176;2022-12-26T04:58:10;92.97;;;40.92;;
69892;SDS011;61212;42.688;22.176;2022-12-26T05:00:36;92.50;;;39.13;;
69892;SDS011;61212;42.688;22.176;2022-12-26T05:03:03;78.50;;;33.95;;
69892;SDS011;61212;42.688;22.176;2022-12-26T05:05:48;74.40;;;34.08;;
69892;SDS011;61212;42.688;22.176;2022-12-26T05:11:18;78.38;;;34.70;;
69892;SDS011;61212;42.688;22.176;2022-12-26T05:13:44;83.43;;;33.58;;
69892;SDS011;61212;42.688;22.176;2022-12-26T05:16:10;92.75;;;32.80;;
69892;SDS011;61212;42.688;22.176;2022-12-26T05:18:55;95.50;;;31.50;;
69892;SDS011;61212;42.688;22.176;2022-12-26T05:21:40;97.85;;;35.42;;
69892;SDS011;61212;42.688;22.176;2022-12-26T05:24:26;105.75;;;36.20;;
69892;SDS011;61212;42.688;22.176;2022-12-26T05:33:46;91.88;;;42.40;;
69892;SDS011;61212;42.688;22.176;2022-12-26T05:36:38;104.85;;;37.92;;
69892;SDS011;61212;42.688;22.176;2022-12-26T05:39:05;89.20;;;35.60;;
69892;SDS011;61212;42.688;22.176;2022-12-26T05:41:31;80.47;;;33.00;;
69892;SDS011;61212;42.688;22.176;2022-12-26T05:47:01;83.68;;;29.27;;
69892;SDS011;61212;42.688;22.176;2022-12-26T05:49:27;82.70;;;36.20;;
69892;SDS011;61212;42.688;22.176;2022-12-26T05:51:53;87.07;;;33.85;;
69892;SDS011;61212;42.688;22.176;2022-12-26T05:54:19;71.57;;;23.85;;
69892;SDS011;61212;42.688;22.176;2022-12-26T05:56:45;64.13;;;27.42;;
69892;SDS011;61212;42.688;22.176;2022-12-26T05:59:11;103.18;;;33.28;;
69892;SDS011;61212;42.688;22.176;2022-12-26T06:01:37;99.97;;;36.50;;
69892;SDS011;61212;42.688;22.176;2022-12-26T06:04:09;105.40;;;40.03;;
69892;SDS011;61212;42.688;22.176;2022-12-26T06:06:35;122.53;;;42.83;;
69892;SDS011;61212;42.688;22.176;2022-12-26T06:09:01;86.20;;;39.15;;
69892;SDS011;61212;42.688;22.176;2022-12-26T06:11:27;93.85;;;35.92;;
69892;SDS011;61212;42.688;22.176;2022-12-26T06:13:53;92.55;;;37.78;;
69892;SDS011;61212;42.688;22.176;2022-12-26T06:16:20;115.80;;;45.00;;
69892;SDS011;61212;42.688;22.176;2022-12-26T06:18:46;90.28;;;41.00;;
69892;SDS011;61212;42.688;22.176;2022-12-26T06:21:14;93.32;;;38.50;;
69892;SDS011;61212;42.688;22.176;2022-12-26T06:23:40;81.30;;;37.65;;
69892;SDS011;61212;42.688;22.176;2022-12-26T06:26:06;63.15;;;30.92;;
69892;SDS011;61212;42.688;22.176;2022-12-26T06:28:34;40.83;;;23.75;;
69892;SDS011;61212;42.688;22.176;2022-12-26T06:31:01;71.80;;;29.48;;
69892;SDS011;61212;42.688;22.176;2022-12-26T06:33:29;59.70;;;31.05;;
69892;SDS011;61212;42.688;22.176;2022-12-26T06:36:00;75.85;;;33.85;;
69892;SDS011;61212;42.688;22.176;2022-12-26T06:38:26;79.72;;;34.30;;
69892;SDS011;61212;42.688;22.176;2022-12-26T06:40:52;71.07;;;31.85;;
69892;SDS011;61212;42.688;22.176;2022-12-26T06:43:18;106.50;;;39.00;;
69892;SDS011;61212;42.688;22.176;2022-12-26T06:45:52;91.45;;;48.00;;
69892;SDS011;61212;42.688;22.176;2022-12-26T06:48:18;88.18;;;38.88;;
69892;SDS011;61212;42.688;22.176;2022-12-26T06:50:44;95.10;;;40.33;;
69892;SDS011;61212;42.688;22.176;2022-12-26T06:53:10;88.75;;;39.22;;
69892;SDS011;61212;42.688;22.176;2022-12-26T06:55:36;84.15;;;37.67;;
69892;SDS011;61212;42.688;22.176;2022-12-26T06:58:03;66.75;;;30.77;;
69892;SDS011;61212;42.688;22.176;2022-12-26T07:00:29;88.07;;;39.42;;
69892;SDS011;61212;42.688;22.176;2022-12-26T07:02:55;71.00;;;34.03;;
69892;SDS011;61212;42.688;22.176;2022-12-26T07:05:21;90.97;;;37.60;;
69892;SDS011;61212;42.688;22.176;2022-12-26T07:07:50;81.63;;;37.25;;
69892;SDS011;61212;42.688;22.176;2022-12-26T07:10:17;97.60;;;45.42;;
69892;SDS011;61212;42.688;22.176;2022-12-26T07:12:43;99.13;;;42.63;;
69892;SDS011;61212;42.688;22.176;2022-12-26T07:15:09;119.32;;;40.40;;
69892;SDS011;61212;42.688;22.176;2022-12-26T07:17:36;89.43;;;36.58;;
69892;SDS011;61212;42.688;22.176;2022-12-26T07:20:06;85.55;;;37.70;;
69892;SDS011;61212;42.688;22.176;2022-12-26T07:22:32;93.95;;;39.47;;
69892;SDS011;61212;42.688;22.176;2022-12-26T07:24:58;102.55;;;45.22;;
69892;SDS011;61212;42.688;22.176;2022-12-26T07:27:24;106.50;;;47.17;;
69892;SDS011;61212;42.688;22.176;2022-12-26T07:29:50;105.18;;;50.05;;
69892;SDS011;61212;42.688;22.176;2022-12-26T07:32:17;130.75;;;48.90;;
69892;SDS011;61212;42.688;22.176;2022-12-26T07:34:43;102.72;;;46.17;;
69892;SDS011;61212;42.688;22.176;2022-12-26T07:37:09;97.93;;;43.78;;
69892;SDS011;61212;42.688;22.176;2022-12-26T07:39:36;112.53;;;51.92;;
69892;SDS011;61212;42.688;22.176;2022-12-26T07:42:02;127.88;;;56.80;;
69892;SDS011;61212;42.688;22.176;2022-12-26T07:44:47;118.30;;;50.50;;
69892;SDS011;61212;42.688;22.176;2022-12-26T07:47:13;95.22;;;46.40;;
69892;SDS011;61212;42.688;22.176;2022-12-26T07:49:39;113.28;;;51.47;;
69892;SDS011;61212;42.688;22.176;2022-12-26T07:52:06;97.22;;;47.45;;
69892;SDS011;61212;42.688;22.176;2022-12-26T07:54:32;116.82;;;56.78;;
69892;SDS011;61212;42.688;22.176;2022-12-26T07:56:58;132.52;;;65.50;;
69892;SDS011;61212;42.688;22.176;2022-12-26T07:59:24;136.15;;;65.68;;
69892;SDS011;61212;42.688;22.176;2022-12-26T08:01:50;169.73;;;84.05;;
69892;SDS011;61212;42.688;22.176;2022-12-26T08:04:16;174.52;;;94.07;;
69892;SDS011;61212;42.688;22.176;2022-12-26T08:06:44;169.77;;;86.57;;
69892;SDS011;61212;42.688;22.176;2022-12-26T08:09:13;166.63;;;83.60;;
69892;SDS011;61212;42.688;22.176;2022-12-26T08:11:40;155.20;;;79.30;;
69892;SDS011;61212;42.688;22.176;2022-12-26T08:14:07;141.68;;;73.55;;
69892;SDS011;61212;42.688;22.176;2022-12-26T08:16:34;149.52;;;78.25;;
69892;SDS011;61212;42.688;22.176;2022-12-26T08:19:00;151.00;;;83.30;;
69892;SDS011;61212;42.688;22.176;2022-12-26T08:21:28;169.38;;;95.18;;
69892;SDS011;61212;42.688;22.176;2022-12-26T08:23:54;180.90;;;99.93;;
69892;SDS011;61212;42.688;22.176;2022-12-26T08:26:20;213.38;;;112.53;;
69892;SDS011;61212;42.688;22.176;2022-12-26T08:28:48;222.65;;;114.60;;
69892;SDS011;61212;42.688;22.176;2022-12-26T08:31:15;152.30;;;80.57;;
69892;SDS011;61212;42.688;22.176;2022-12-26T08:33:41;186.40;;;85.53;;
69892;SDS011;61212;42.688;22.176;2022-12-26T08:36:08;102.13;;;55.65;;
69892;SDS011;61212;42.688;22.176;2022-12-26T08:38:35;87.57;;;46.42;;
69892;SDS011;61212;42.688;22.176;2022-12-26T08:41:01;95.55;;;52.30;;
69892;SDS011;61212;42.688;22.176;2022-12-26T08:43:27;108.25;;;51.55;;
69892;SDS011;61212;42.688;22.176;2022-12-26T08:46:00;107.07;;;46.50;;
69892;SDS011;61212;42.688;22.176;2022-12-26T08:48:26;106.65;;;45.78;;
69892;SDS011;61212;42.688;22.176;2022-12-26T08:51:00;163.57;;;55.47;;
69892;SDS011;61212;42.688;22.176;2022-12-26T08:53:27;162.40;;;60.92;;
69892;SDS011;61212;42.688;22.176;2022-12-26T08:55:54;134.32;;;56.88;;
69892;SDS011;61212;42.688;22.176;2022-12-26T08:58:20;125.20;;;50.65;;
69892;SDS011;61212;42.688;22.176;2022-12-26T09:00:46;110.22;;;49.13;;
69892;SDS011;61212;42.688;22.176;2022-12-26T09:03:13;115.85;;;54.60;;
69892;SDS011;61212;42.688;22.176;2022-12-26T09:05:39;133.55;;;65.30;;
69892;SDS011;61212;42.688;22.176;2022-12-26T09:08:05;140.75;;;68.45;;
69892;SDS011;61212;42.688;22.176;2022-12-26T09:10:32;124.57;;;63.90;;
69892;SDS011;61212;42.688;22.176;2022-12-26T09:12:58;133.18;;;72.85;;
69892;SDS011;61212;42.688;22.176;2022-12-26T09:15:24;124.35;;;71.35;;
69892;SDS011;61212;42.688;22.176;2022-12-26T09:17:50;116.65;;;65.38;;
69892;SDS011;61212;42.688;22.176;2022-12-26T09:20:16;85.72;;;45.88;;
69892;SDS011;61212;42.688;22.176;2022-12-26T09:22:42;85.05;;;48.30;;
69892;SDS011;61212;42.688;22.176;2022-12-26T09:25:16;89.28;;;43.50;;
69892;SDS011;61212;42.688;22.176;2022-12-26T09:27:42;95.32;;;43.97;;
69892;SDS011;61212;42.688;22.176;2022-12-26T09:30:08;109.20;;;52.00;;
69892;SDS011;61212;42.688;22.176;2022-12-26T09:32:34;105.82;;;54.58;;
69892;SDS011;61212;42.688;22.176;2022-12-26T09:35:01;97.80;;;51.22;;
69892;SDS011;61212;42.688;22.176;2022-12-26T09:37:27;99.80;;;52.63;;
69892;SDS011;61212;42.688;22.176;2022-12-26T09:39:53;109.55;;;55.20;;
69892;SDS011;61212;42.688;22.176;2022-12-26T09:45:12;103.78;;;59.80;;
69892;SDS011;61212;42.688;22.176;2022-12-26T09:50:19;143.18;;;80.78;;
69892;SDS011;61212;42.688;22.176;2022-12-26T09:52:51;127.68;;;69.10;;
69892;SDS011;61212;42.688;22.176;2022-12-26T09:57:45;108.45;;;61.00;;
69892;SDS011;61212;42.688;22.176;2022-12-26T10:00:16;108.93;;;61.83;;
69892;SDS011;61212;42.688;22.176;2022-12-26T10:02:44;101.20;;;60.65;;
69892;SDS011;61212;42.688;22.176;2022-12-26T10:05:12;93.05;;;54.35;;
69892;SDS011;61212;42.688;22.176;2022-12-26T10:07:43;85.20;;;49.78;;
69892;SDS011;61212;42.688;22.176;2022-12-26T10:10:13;73.90;;;46.42;;
69892;SDS011;61212;42.688;22.176;2022-12-26T10:17:55;68.53;;;36.60;;
69892;SDS011;61212;42.688;22.176;2022-12-26T10:20:30;77.72;;;46.90;;
69892;SDS011;61212;42.688;22.176;2022-12-26T10:28:16;111.75;;;64.18;;
69892;SDS011;61212;42.688;22.176;2022-12-26T10:30:43;104.53;;;60.65;;
69892;SDS011;61212;42.688;22.176;2022-12-26T10:33:13;87.55;;;53.80;;
69892;SDS011;61212;42.688;22.176;2022-12-26T10:35:43;85.25;;;50.92;;
69892;SDS011;61212;42.688;22.176;2022-12-26T10:38:12;84.53;;;51.15;;
69892;SDS011;61212;42.688;22.176;2022-12-26T10:40:41;79.30;;;49.20;;
69892;SDS011;61212;42.688;22.176;2022-12-26T10:43:17;82.10;;;48.95;;
69892;SDS011;61212;42.688;22.176;2022-12-26T10:48:24;63.80;;;36.20;;
69892;SDS011;61212;42.688;22.176;2022-12-26T10:50:51;64.30;;;35.17;;
69892;SDS011;61212;42.688;22.176;2022-12-26T10:53:17;48.25;;;29.40;;
69892;SDS011;61212;42.688;22.176;2022-12-26T10:55:43;44.92;;;28.73;;
69892;SDS011;61212;42.688;22.176;2022-12-26T10:58:20;45.63;;;25.80;;
69892;SDS011;61212;42.688;22.176;2022-12-26T11:00:47;41.53;;;24.67;;
69892;SDS011;61212;42.688;22.176;2022-12-26T11:03:14;40.50;;;25.60;;
69892;SDS011;61212;42.688;22.176;2022-12-26T11:08:21;33.90;;;19.25;;
69892;SDS011;61212;42.688;22.176;2022-12-26T11:11:04;29.15;;;16.25;;
69892;SDS011;61212;42.688;22.176;2022-12-26T11:13:34;41.05;;;23.08;;
69892;SDS011;61212;42.688;22.176;2022-12-26T11:16:01;44.65;;;26.45;;
69892;SDS011;61212;42.688;22.176;2022-12-26T11:21:10;49.58;;;25.90;;
69892;SDS011;61212;42.688;22.176;2022-12-26T11:23:36;38.90;;;22.38;;
69892;SDS011;61212;42.688;22.176;2022-12-26T11:26:09;39.00;;;22.70;;
69892;SDS011;61212;42.688;22.176;2022-12-26T11:28:42;38.83;;;23.25;;
69892;SDS011;61212;42.688;22.176;2022-12-26T11:31:13;55.10;;;32.28;;
69892;SDS011;61212;42.688;22.176;2022-12-26T11:33:46;48.53;;;31.65;;
69892;SDS011;61212;42.688;22.176;2022-12-26T11:38:46;45.22;;;27.95;;
69892;SDS011;61212;42.688;22.176;2022-12-26T11:46:48;43.80;;;25.48;;
69892;SDS011;61212;42.688;22.176;2022-12-26T11:51:46;46.20;;;27.60;;
69892;SDS011;61212;42.688;22.176;2022-12-26T11:54:19;50.00;;;26.35;;
69892;SDS011;61212;42.688;22.176;2022-12-26T11:56:46;35.95;;;22.92;;
69892;SDS011;61212;42.688;22.176;2022-12-26T11:59:17;34.67;;;21.13;;
69892;SDS011;61212;42.688;22.176;2022-12-26T12:01:43;26.88;;;16.33;;
69892;SDS011;61212;42.688;22.176;2022-12-26T12:04:10;30.67;;;15.68;;
69892;SDS011;61212;42.688;22.176;2022-12-26T12:09:44;25.90;;;13.82;;
69892;SDS011;61212;42.688;22.176;2022-12-26T12:14:44;20.65;;;10.98;;
69892;SDS011;61212;42.688;22.176;2022-12-26T12:17:23;19.77;;;11.35;;
69892;SDS011;61212;42.688;22.176;2022-12-26T12:30:56;59.95;;;15.38;;
69892;SDS011;61212;42.688;22.176;2022-12-26T12:36:18;29.25;;;17.20;;
69892;SDS011;61212;42.688;22.176;2022-12-26T12:43:49;24.00;;;15.25;;
69892;SDS011;61212;42.688;22.176;2022-12-26T12:46:35;25.02;;;13.75;;
69892;SDS011;61212;42.688;22.176;2022-12-26T12:51:58;27.92;;;14.50;;
69892;SDS011;61212;42.688;22.176;2022-12-26T12:57:03;21.63;;;12.02;;
69892;SDS011;61212;42.688;22.176;2022-12-26T13:01:59;20.40;;;10.93;;
69892;SDS011;61212;42.688;22.176;2022-12-26T13:04:37;18.60;;;9.95;;
69892;SDS011;61212;42.688;22.176;2022-12-26T13:07:05;14.65;;;9.75;;
69892;SDS011;61212;42.688;22.176;2022-12-26T13:12:17;20.85;;;11.50;;
69892;SDS011;61212;42.688;22.176;2022-12-26T13:19:37;20.08;;;12.00;;
69892;SDS011;61212;42.688;22.176;2022-12-26T13:22:05;17.63;;;9.95;;
69892;SDS011;61212;42.688;22.176;2022-12-26T13:24:37;20.17;;;13.15;;
69892;SDS011;61212;42.688;22.176;2022-12-26T13:29:33;11.02;;;6.32;;
69892;SDS011;61212;42.688;22.176;2022-12-26T13:32:00;11.38;;;5.70;;
69892;SDS011;61212;42.688;22.176;2022-12-26T13:34:28;13.02;;;7.97;;
69892;SDS011;61212;42.688;22.176;2022-12-26T13:36:55;15.93;;;7.78;;
69892;SDS011;61212;42.688;22.176;2022-12-26T13:41:52;32.10;;;18.23;;
69892;SDS011;61212;42.688;22.176;2022-12-26T13:49:56;11.73;;;7.82;;
69892;SDS011;61212;42.688;22.176;2022-12-26T13:52:30;22.15;;;12.15;;
69892;SDS011;61212;42.688;22.176;2022-12-26T14:24:20;72.90;;;38.17;;
69892;SDS011;61212;42.688;22.176;2022-12-26T14:36:58;71.15;;;40.25;;
69892;SDS011;61212;42.688;22.176;2022-12-26T15:16:25;54.53;;;32.05;;
69892;SDS011;61212;42.688;22.176;2022-12-26T15:37:21;127.45;;;65.10;;
69892;SDS011;61212;42.688;22.176;2022-12-26T15:48:20;103.80;;;53.85;;
69892;SDS011;61212;42.688;22.176;2022-12-26T16:01:51;81.03;;;46.88;;
69892;SDS011;61212;42.688;22.176;2022-12-26T16:04:31;71.45;;;41.13;;
69892;SDS011;61212;42.688;22.176;2022-12-26T16:12:25;139.43;;;77.47;;
69892;SDS011;61212;42.688;22.176;2022-12-26T16:15:03;139.80;;;71.05;;
69892;SDS011;61212;42.688;22.176;2022-12-26T16:17:39;146.10;;;78.63;;
69892;SDS011;61212;42.688;22.176;2022-12-26T16:23:20;166.98;;;88.80;;
69892;SDS011;61212;42.688;22.176;2022-12-26T16:25:47;162.90;;;85.05;;
69892;SDS011;61212;42.688;22.176;2022-12-26T16:28:14;149.00;;;77.10;;
69892;SDS011;61212;42.688;22.176;2022-12-26T16:30:40;134.20;;;70.93;;
69892;SDS011;61212;42.688;22.176;2022-12-26T16:33:07;116.20;;;62.38;;
69892;SDS011;61212;42.688;22.176;2022-12-26T16:35:34;129.25;;;70.65;;
69892;SDS011;61212;42.688;22.176;2022-12-26T16:38:02;105.53;;;58.97;;
69892;SDS011;61212;42.688;22.176;2022-12-26T16:40:32;85.70;;;48.20;;
69892;SDS011;61212;42.688;22.176;2022-12-26T16:43:00;84.05;;;46.95;;
69892;SDS011;61212;42.688;22.176;2022-12-26T16:45:27;60.97;;;36.33;;
69892;SDS011;61212;42.688;22.176;2022-12-26T16:47:55;66.55;;;39.15;;
69892;SDS011;61212;42.688;22.176;2022-12-26T16:50:23;71.15;;;37.08;;
69892;SDS011;61212;42.688;22.176;2022-12-26T16:52:59;79.95;;;41.00;;
69892;SDS011;61212;42.688;22.176;2022-12-26T16:57:58;67.70;;;38.88;;
69892;SDS011;61212;42.688;22.176;2022-12-26T17:00:47;57.97;;;34.95;;
69892;SDS011;61212;42.688;22.176;2022-12-26T17:03:21;40.35;;;24.88;;
69892;SDS011;61212;42.688;22.176;2022-12-26T17:05:49;46.10;;;24.92;;
69892;SDS011;61212;42.688;22.176;2022-12-26T17:08:15;41.80;;;22.73;;
69892;SDS011;61212;42.688;22.176;2022-12-26T17:10:45;44.38;;;24.95;;
69892;SDS011;61212;42.688;22.176;2022-12-26T17:13:16;51.92;;;30.10;;
69892;SDS011;61212;42.688;22.176;2022-12-26T17:15:49;73.32;;;40.17;;
69892;SDS011;61212;42.688;22.176;2022-12-26T17:18:29;129.88;;;68.97;;
69892;SDS011;61212;42.688;22.176;2022-12-26T17:20:55;138.05;;;73.22;;
69892;SDS011;61212;42.688;22.176;2022-12-26T17:23:39;117.25;;;63.75;;
69892;SDS011;61212;42.688;22.176;2022-12-26T17:26:20;114.15;;;62.22;;
69892;SDS011;61212;42.688;22.176;2022-12-26T17:28:46;102.50;;;56.13;;
69892;SDS011;61212;42.688;22.176;2022-12-26T17:31:15;147.57;;;77.65;;
69892;SDS011;61212;42.688;22.176;2022-12-26T17:33:41;119.30;;;64.95;;
69892;SDS011;61212;42.688;22.176;2022-12-26T17:36:10;105.78;;;56.45;;
69892;SDS011;61212;42.688;22.176;2022-12-26T17:38:38;108.50;;;59.35;;
69892;SDS011;61212;42.688;22.176;2022-12-26T17:41:04;81.32;;;45.67;;
69892;SDS011;61212;42.688;22.176;2022-12-26T17:43:32;72.93;;;40.67;;
69892;SDS011;61212;42.688;22.176;2022-12-26T17:45:58;95.75;;;49.97;;
69892;SDS011;61212;42.688;22.176;2022-12-26T17:48:24;118.32;;;59.80;;
69892;SDS011;61212;42.688;22.176;2022-12-26T17:50:58;115.30;;;62.17;;
69892;SDS011;61212;42.688;22.176;2022-12-26T17:53:31;106.47;;;55.13;;
69892;SDS011;61212;42.688;22.176;2022-12-26T17:55:58;100.60;;;54.30;;
69892;SDS011;61212;42.688;22.176;2022-12-26T17:58:25;121.90;;;67.55;;
69892;SDS011;61212;42.688;22.176;2022-12-26T18:00:51;146.38;;;77.93;;
69892;SDS011;61212;42.688;22.176;2022-12-26T18:03:18;133.45;;;73.93;;
69892;SDS011;61212;42.688;22.176;2022-12-26T18:05:44;110.15;;;59.25;;
69892;SDS011;61212;42.688;22.176;2022-12-26T18:10:49;97.18;;;54.45;;
69892;SDS011;61212;42.688;22.176;2022-12-26T18:13:15;114.22;;;63.35;;
69892;SDS011;61212;42.688;22.176;2022-12-26T18:15:42;123.70;;;66.25;;
69892;SDS011;61212;42.688;22.176;2022-12-26T18:18:15;126.28;;;69.25;;
69892;SDS011;61212;42.688;22.176;2022-12-26T18:20:45;120.22;;;63.47;;
69892;SDS011;61212;42.688;22.176;2022-12-26T18:23:12;137.70;;;70.75;;
69892;SDS011;61212;42.688;22.176;2022-12-26T18:25:40;122.63;;;66.35;;
69892;SDS011;61212;42.688;22.176;2022-12-26T18:28:08;98.55;;;53.72;;
69892;SDS011;61212;42.688;22.176;2022-12-26T18:30:35;98.00;;;54.40;;
69892;SDS011;61212;42.688;22.176;2022-12-26T18:33:01;101.47;;;54.15;;
69892;SDS011;61212;42.688;22.176;2022-12-26T18:35:27;99.18;;;55.40;;
69892;SDS011;61212;42.688;22.176;2022-12-26T18:37:53;107.03;;;59.70;;
69892;SDS011;61212;42.688;22.176;2022-12-26T18:42:45;65.75;;;34.08;;
69892;SDS011;61212;42.688;22.176;2022-12-26T18:45:11;62.42;;;33.53;;
69892;SDS011;61212;42.688;22.176;2022-12-26T18:47:38;470.30;;;207.95;;
69892;SDS011;61212;42.688;22.176;2022-12-26T18:50:08;254.10;;;123.40;;
69892;SDS011;61212;42.688;22.176;2022-12-26T18:52:34;210.63;;;101.97;;
69892;SDS011;61212;42.688;22.176;2022-12-26T18:55:00;206.43;;;103.25;;
69892;SDS011;61212;42.688;22.176;2022-12-26T18:57:27;184.15;;;95.75;;
69892;SDS011;61212;42.688;22.176;2022-12-26T18:59:53;185.73;;;95.78;;
69892;SDS011;61212;42.688;22.176;2022-12-26T19:02:19;177.25;;;93.95;;
69892;SDS011;61212;42.688;22.176;2022-12-26T19:04:48;166.73;;;91.28;;
69892;SDS011;61212;42.688;22.176;2022-12-26T19:07:18;128.02;;;69.88;;
69892;SDS011;61212;42.688;22.176;2022-12-26T19:09:45;96.75;;;53.40;;
69892;SDS011;61212;42.688;22.176;2022-12-26T19:12:15;116.90;;;63.25;;
69892;SDS011;61212;42.688;22.176;2022-12-26T19:14:45;117.28;;;69.53;;
69892;SDS011;61212;42.688;22.176;2022-12-26T19:17:28;118.15;;;66.30;;
69892;SDS011;61212;42.688;22.176;2022-12-26T19:19:56;114.70;;;65.30;;
69892;SDS011;61212;42.688;22.176;2022-12-26T19:22:23;120.72;;;69.03;;
69892;SDS011;61212;42.688;22.176;2022-12-26T19:24:52;135.68;;;78.88;;
69892;SDS011;61212;42.688;22.176;2022-12-26T19:30:00;111.75;;;62.92;;
69892;SDS011;61212;42.688;22.176;2022-12-26T19:50:37;127.43;;;68.78;;